sensor_id;sensor_type;location;lat;lon;timestamp;P1;durP1;ratioP1;P2;durP2;ratioP2
65063;SDS011;51654;51.452;6.644;2023-02-01T00:02:01;57.87;;;19.90;;
65063;SDS011;51654;51.452;6.644;2023-02-01T00:04:28;47.07;;;14.83;;
65063;SDS011;51654;51.452;6.644;2023-02-01T00:06:55;57.83;;;16.87;;
65063;SDS011;51654;51.452;6.644;2023-02-01T00:09:22;24.47;;;7.97;;
65063;SDS011;51654;51.452;6.644;2023-02-01T00:11:49;68.50;;;19.10;;
65063;SDS011;51654;51.452;6.644;2023-02-01T00:14:16;45.87;;;12.00;;
65063;SDS011;51654;51.452;6.644;2023-02-01T00:16:43;29.67;;;6.97;;
65063;SDS011;51654;51.452;6.644;2023-02-01T00:19:11;46.33;;;16.13;;
65063;SDS011;51654;51.452;6.644;2023-02-01T00:21:40;19.50;;;5.87;;
65063;SDS011;51654;51.452;6.644;2023-02-01T00:24:08;21.33;;;6.23;;
65063;SDS011;51654;51.452;6.644;2023-02-01T00:26:40;29.77;;;9.73;;
65063;SDS011;51654;51.452;6.644;2023-02-01T00:29:10;23.00;;;7.23;;
65063;SDS011;51654;51.452;6.644;2023-02-01T00:31:40;28.57;;;4.27;;
65063;SDS011;51654;51.452;6.644;2023-02-01T00:34:09;16.30;;;3.03;;
65063;SDS011;51654;51.452;6.644;2023-02-01T00:36:40;14.98;;;5.65;;
65063;SDS011;51654;51.452;6.644;2023-02-01T00:39:08;8.20;;;3.43;;
65063;SDS011;51654;51.452;6.644;2023-02-01T00:41:36;15.67;;;6.23;;
65063;SDS011;51654;51.452;6.644;2023-02-01T00:44:03;21.67;;;4.77;;
65063;SDS011;51654;51.452;6.644;2023-02-01T00:46:30;14.00;;;4.17;;
65063;SDS011;51654;51.452;6.644;2023-02-01T00:48:57;9.00;;;3.87;;
65063;SDS011;51654;51.452;6.644;2023-02-01T00:51:26;292.70;;;92.47;;
65063;SDS011;51654;51.452;6.644;2023-02-01T00:53:54;437.63;;;138.10;;
65063;SDS011;51654;51.452;6.644;2023-02-01T00:56:22;507.07;;;185.93;;
65063;SDS011;51654;51.452;6.644;2023-02-01T00:58:49;344.97;;;113.80;;
65063;SDS011;51654;51.452;6.644;2023-02-01T01:03:46;120.23;;;37.93;;
65063;SDS011;51654;51.452;6.644;2023-02-01T01:06:15;68.55;;;21.10;;
65063;SDS011;51654;51.452;6.644;2023-02-01T01:08:43;142.83;;;46.20;;
65063;SDS011;51654;51.452;6.644;2023-02-01T01:28:21;30.77;;;6.73;;
65063;SDS011;51654;51.452;6.644;2023-02-01T01:30:48;17.33;;;4.97;;
65063;SDS011;51654;51.452;6.644;2023-02-01T01:33:15;29.10;;;7.60;;
65063;SDS011;51654;51.452;6.644;2023-02-01T01:45:39;16.50;;;4.27;;
65063;SDS011;51654;51.452;6.644;2023-02-01T01:48:25;11.87;;;3.50;;
65063;SDS011;51654;51.452;6.644;2023-02-01T01:50:57;16.43;;;3.67;;
65063;SDS011;51654;51.452;6.644;2023-02-01T01:53:38;11.97;;;4.80;;
65063;SDS011;51654;51.452;6.644;2023-02-01T01:56:13;16.20;;;5.70;;
65063;SDS011;51654;51.452;6.644;2023-02-01T01:58:41;23.30;;;6.43;;
65063;SDS011;51654;51.452;6.644;2023-02-01T02:01:08;96.10;;;21.23;;
65063;SDS011;51654;51.452;6.644;2023-02-01T02:03:40;464.03;;;94.27;;
65063;SDS011;51654;51.452;6.644;2023-02-01T02:06:15;133.32;;;21.52;;
65063;SDS011;51654;51.452;6.644;2023-02-01T02:08:54;13.07;;;3.07;;
65063;SDS011;51654;51.452;6.644;2023-02-01T02:11:20;25.00;;;4.77;;
65063;SDS011;51654;51.452;6.644;2023-02-01T02:13:51;20.17;;;4.13;;
65063;SDS011;51654;51.452;6.644;2023-02-01T02:18:57;118.87;;;29.03;;
65063;SDS011;51654;51.452;6.644;2023-02-01T02:21:52;184.33;;;42.50;;
65063;SDS011;51654;51.452;6.644;2023-02-01T02:33:02;19.37;;;3.10;;
65063;SDS011;51654;51.452;6.644;2023-02-01T02:35:56;12.83;;;2.40;;
65063;SDS011;51654;51.452;6.644;2023-02-01T02:41:48;7.27;;;3.10;;
65063;SDS011;51654;51.452;6.644;2023-02-01T02:47:49;13.07;;;3.10;;
65063;SDS011;51654;51.452;6.644;2023-02-01T02:53:28;7.23;;;2.53;;
65063;SDS011;51654;51.452;6.644;2023-02-01T02:56:20;11.10;;;2.90;;
65063;SDS011;51654;51.452;6.644;2023-02-01T02:59:09;16.53;;;3.27;;
65063;SDS011;51654;51.452;6.644;2023-02-01T03:01:57;11.03;;;2.47;;
65063;SDS011;51654;51.452;6.644;2023-02-01T03:09:55;7.70;;;2.63;;
65063;SDS011;51654;51.452;6.644;2023-02-01T03:12:23;15.93;;;2.90;;
65063;SDS011;51654;51.452;6.644;2023-02-01T03:15:10;16.50;;;3.47;;
65063;SDS011;51654;51.452;6.644;2023-02-01T03:17:40;14.13;;;3.20;;
65063;SDS011;51654;51.452;6.644;2023-02-01T03:20:09;10.63;;;1.80;;
65063;SDS011;51654;51.452;6.644;2023-02-01T03:22:39;12.90;;;2.93;;
65063;SDS011;51654;51.452;6.644;2023-02-01T03:25:13;13.60;;;3.73;;
65063;SDS011;51654;51.452;6.644;2023-02-01T03:30:28;11.25;;;2.85;;
65063;SDS011;51654;51.452;6.644;2023-02-01T03:32:59;20.20;;;3.00;;
65063;SDS011;51654;51.452;6.644;2023-02-01T03:35:40;14.63;;;2.67;;
65063;SDS011;51654;51.452;6.644;2023-02-01T03:41:03;15.77;;;3.20;;
65063;SDS011;51654;51.452;6.644;2023-02-01T03:43:42;20.90;;;3.63;;
65063;SDS011;51654;51.452;6.644;2023-02-01T03:46:32;14.53;;;3.27;;
65063;SDS011;51654;51.452;6.644;2023-02-01T03:49:05;14.63;;;3.63;;
65063;SDS011;51654;51.452;6.644;2023-02-01T03:51:37;18.55;;;3.45;;
65063;SDS011;51654;51.452;6.644;2023-02-01T03:54:09;16.20;;;3.80;;
65063;SDS011;51654;51.452;6.644;2023-02-01T03:56:41;14.90;;;2.73;;
65063;SDS011;51654;51.452;6.644;2023-02-01T03:59:11;14.97;;;2.97;;
65063;SDS011;51654;51.452;6.644;2023-02-01T04:01:39;18.13;;;2.60;;
65063;SDS011;51654;51.452;6.644;2023-02-01T04:04:07;14.03;;;3.43;;
65063;SDS011;51654;51.452;6.644;2023-02-01T04:06:36;25.00;;;4.03;;
65063;SDS011;51654;51.452;6.644;2023-02-01T04:09:04;12.77;;;2.80;;
65063;SDS011;51654;51.452;6.644;2023-02-01T04:11:30;18.93;;;3.93;;
65063;SDS011;51654;51.452;6.644;2023-02-01T04:13:57;9.20;;;3.57;;
65063;SDS011;51654;51.452;6.644;2023-02-01T04:16:24;11.50;;;2.37;;
65063;SDS011;51654;51.452;6.644;2023-02-01T04:18:51;14.87;;;2.80;;
65063;SDS011;51654;51.452;6.644;2023-02-01T04:21:21;14.60;;;3.00;;
65063;SDS011;51654;51.452;6.644;2023-02-01T04:23:47;16.10;;;2.67;;
65063;SDS011;51654;51.452;6.644;2023-02-01T04:26:14;7.40;;;2.83;;
65063;SDS011;51654;51.452;6.644;2023-02-01T04:28:42;27.27;;;3.47;;
65063;SDS011;51654;51.452;6.644;2023-02-01T04:31:09;18.93;;;3.13;;
65063;SDS011;51654;51.452;6.644;2023-02-01T04:33:36;20.20;;;3.73;;
65063;SDS011;51654;51.452;6.644;2023-02-01T04:36:03;13.43;;;4.27;;
65063;SDS011;51654;51.452;6.644;2023-02-01T04:38:30;37.03;;;3.07;;
65063;SDS011;51654;51.452;6.644;2023-02-01T04:40:58;20.03;;;3.10;;
65063;SDS011;51654;51.452;6.644;2023-02-01T04:43:25;19.30;;;3.00;;
65063;SDS011;51654;51.452;6.644;2023-02-01T04:45:52;12.67;;;2.73;;
65063;SDS011;51654;51.452;6.644;2023-02-01T04:48:20;17.27;;;2.97;;
65063;SDS011;51654;51.452;6.644;2023-02-01T04:50:50;15.93;;;4.83;;
65063;SDS011;51654;51.452;6.644;2023-02-01T04:53:17;14.40;;;2.57;;
65063;SDS011;51654;51.452;6.644;2023-02-01T04:55:44;17.20;;;2.73;;
65063;SDS011;51654;51.452;6.644;2023-02-01T04:58:11;14.70;;;2.33;;
65063;SDS011;51654;51.452;6.644;2023-02-01T05:00:38;30.13;;;4.10;;
65063;SDS011;51654;51.452;6.644;2023-02-01T05:03:05;15.20;;;3.27;;
65063;SDS011;51654;51.452;6.644;2023-02-01T05:05:32;10.63;;;3.60;;
65063;SDS011;51654;51.452;6.644;2023-02-01T05:07:58;15.73;;;3.43;;
65063;SDS011;51654;51.452;6.644;2023-02-01T05:10:25;12.30;;;2.93;;
65063;SDS011;51654;51.452;6.644;2023-02-01T05:12:52;17.67;;;2.70;;
65063;SDS011;51654;51.452;6.644;2023-02-01T05:15:38;18.30;;;4.33;;
65063;SDS011;51654;51.452;6.644;2023-02-01T05:18:05;18.90;;;3.27;;
65063;SDS011;51654;51.452;6.644;2023-02-01T05:20:31;10.83;;;2.57;;
65063;SDS011;51654;51.452;6.644;2023-02-01T05:22:58;8.10;;;2.43;;
65063;SDS011;51654;51.452;6.644;2023-02-01T05:25:25;7.50;;;2.67;;
65063;SDS011;51654;51.452;6.644;2023-02-01T05:27:53;20.20;;;5.03;;
65063;SDS011;51654;51.452;6.644;2023-02-01T05:30:20;18.03;;;4.03;;
65063;SDS011;51654;51.452;6.644;2023-02-01T05:32:51;14.57;;;2.77;;
65063;SDS011;51654;51.452;6.644;2023-02-01T05:35:18;19.83;;;2.90;;
65063;SDS011;51654;51.452;6.644;2023-02-01T05:37:46;14.57;;;2.67;;
65063;SDS011;51654;51.452;6.644;2023-02-01T05:40:13;20.80;;;3.07;;
65063;SDS011;51654;51.452;6.644;2023-02-01T05:42:39;20.77;;;3.13;;
65063;SDS011;51654;51.452;6.644;2023-02-01T05:45:06;22.23;;;3.50;;
65063;SDS011;51654;51.452;6.644;2023-02-01T05:47:34;18.53;;;3.57;;
65063;SDS011;51654;51.452;6.644;2023-02-01T05:50:01;15.00;;;3.07;;
65063;SDS011;51654;51.452;6.644;2023-02-01T05:52:28;19.90;;;3.20;;
65063;SDS011;51654;51.452;6.644;2023-02-01T05:54:55;13.77;;;2.83;;
65063;SDS011;51654;51.452;6.644;2023-02-01T05:57:22;19.97;;;3.70;;
65063;SDS011;51654;51.452;6.644;2023-02-01T05:59:48;12.60;;;3.43;;
65063;SDS011;51654;51.452;6.644;2023-02-01T06:02:15;11.67;;;2.87;;
65063;SDS011;51654;51.452;6.644;2023-02-01T06:04:42;15.00;;;4.23;;
65063;SDS011;51654;51.452;6.644;2023-02-01T06:07:09;30.10;;;3.97;;
65063;SDS011;51654;51.452;6.644;2023-02-01T06:09:36;18.30;;;3.40;;
65063;SDS011;51654;51.452;6.644;2023-02-01T06:12:03;18.37;;;3.83;;
65063;SDS011;51654;51.452;6.644;2023-02-01T06:14:30;24.57;;;3.10;;
65063;SDS011;51654;51.452;6.644;2023-02-01T06:16:57;25.97;;;5.47;;
65063;SDS011;51654;51.452;6.644;2023-02-01T06:19:24;12.67;;;2.93;;
65063;SDS011;51654;51.452;6.644;2023-02-01T06:21:51;20.77;;;4.13;;
65063;SDS011;51654;51.452;6.644;2023-02-01T06:24:18;20.50;;;4.27;;
65063;SDS011;51654;51.452;6.644;2023-02-01T06:26:46;15.23;;;2.80;;
65063;SDS011;51654;51.452;6.644;2023-02-01T06:29:12;12.90;;;3.40;;
65063;SDS011;51654;51.452;6.644;2023-02-01T06:31:39;20.80;;;3.77;;
65063;SDS011;51654;51.452;6.644;2023-02-01T06:34:06;17.27;;;3.53;;
65063;SDS011;51654;51.452;6.644;2023-02-01T06:36:33;25.73;;;3.90;;
65063;SDS011;51654;51.452;6.644;2023-02-01T06:39:00;14.90;;;3.40;;
65063;SDS011;51654;51.452;6.644;2023-02-01T06:41:27;12.83;;;3.90;;
65063;SDS011;51654;51.452;6.644;2023-02-01T06:43:55;13.43;;;3.03;;
65063;SDS011;51654;51.452;6.644;2023-02-01T06:46:21;19.30;;;3.23;;
65063;SDS011;51654;51.452;6.644;2023-02-01T06:48:48;20.00;;;3.03;;
65063;SDS011;51654;51.452;6.644;2023-02-01T06:51:24;37.37;;;4.10;;
65063;SDS011;51654;51.452;6.644;2023-02-01T06:53:52;25.57;;;4.10;;
65063;SDS011;51654;51.452;6.644;2023-02-01T06:56:19;16.63;;;3.20;;
65063;SDS011;51654;51.452;6.644;2023-02-01T06:58:47;17.93;;;3.73;;
65063;SDS011;51654;51.452;6.644;2023-02-01T07:01:14;12.97;;;3.80;;
65063;SDS011;51654;51.452;6.644;2023-02-01T07:03:41;20.60;;;4.30;;
65063;SDS011;51654;51.452;6.644;2023-02-01T07:06:09;12.63;;;3.33;;
65063;SDS011;51654;51.452;6.644;2023-02-01T07:08:36;12.87;;;3.73;;
65063;SDS011;51654;51.452;6.644;2023-02-01T07:11:05;21.20;;;3.80;;
65063;SDS011;51654;51.452;6.644;2023-02-01T07:13:34;18.57;;;3.70;;
65063;SDS011;51654;51.452;6.644;2023-02-01T07:16:02;11.03;;;4.03;;
65063;SDS011;51654;51.452;6.644;2023-02-01T07:18:31;17.47;;;3.53;;
65063;SDS011;51654;51.452;6.644;2023-02-01T07:20:59;16.87;;;3.60;;
65063;SDS011;51654;51.452;6.644;2023-02-01T07:23:26;14.83;;;2.87;;
65063;SDS011;51654;51.452;6.644;2023-02-01T07:25:57;18.73;;;3.40;;
65063;SDS011;51654;51.452;6.644;2023-02-01T07:28:27;20.77;;;5.07;;
65063;SDS011;51654;51.452;6.644;2023-02-01T07:31:01;27.17;;;3.50;;
65063;SDS011;51654;51.452;6.644;2023-02-01T07:33:35;15.03;;;4.20;;
65063;SDS011;51654;51.452;6.644;2023-02-01T07:36:03;24.40;;;3.87;;
65063;SDS011;51654;51.452;6.644;2023-02-01T07:38:32;13.23;;;3.23;;
65063;SDS011;51654;51.452;6.644;2023-02-01T07:40:59;23.70;;;3.93;;
65063;SDS011;51654;51.452;6.644;2023-02-01T07:43:28;20.50;;;3.77;;
65063;SDS011;51654;51.452;6.644;2023-02-01T07:45:55;15.63;;;2.90;;
65063;SDS011;51654;51.452;6.644;2023-02-01T07:48:23;16.43;;;3.00;;
65063;SDS011;51654;51.452;6.644;2023-02-01T07:50:58;22.30;;;3.90;;
65063;SDS011;51654;51.452;6.644;2023-02-01T07:53:25;26.93;;;5.53;;
65063;SDS011;51654;51.452;6.644;2023-02-01T07:55:52;10.53;;;3.33;;
65063;SDS011;51654;51.452;6.644;2023-02-01T07:58:19;11.03;;;3.30;;
65063;SDS011;51654;51.452;6.644;2023-02-01T08:00:46;22.63;;;3.87;;
65063;SDS011;51654;51.452;6.644;2023-02-01T08:03:32;8.07;;;3.33;;
65063;SDS011;51654;51.452;6.644;2023-02-01T08:05:59;10.33;;;2.30;;
65063;SDS011;51654;51.452;6.644;2023-02-01T08:08:26;22.80;;;3.23;;
65063;SDS011;51654;51.452;6.644;2023-02-01T08:10:59;9.03;;;3.03;;
65063;SDS011;51654;51.452;6.644;2023-02-01T08:13:26;25.13;;;3.37;;
65063;SDS011;51654;51.452;6.644;2023-02-01T08:15:57;16.43;;;3.77;;
65063;SDS011;51654;51.452;6.644;2023-02-01T08:18:25;29.80;;;4.07;;
65063;SDS011;51654;51.452;6.644;2023-02-01T08:20:53;29.37;;;4.73;;
65063;SDS011;51654;51.452;6.644;2023-02-01T08:23:20;23.47;;;4.10;;
65063;SDS011;51654;51.452;6.644;2023-02-01T08:25:48;8.47;;;3.37;;
65063;SDS011;51654;51.452;6.644;2023-02-01T08:28:15;22.43;;;4.87;;
65063;SDS011;51654;51.452;6.644;2023-02-01T08:30:42;10.43;;;4.00;;
65063;SDS011;51654;51.452;6.644;2023-02-01T08:33:09;15.53;;;3.67;;
65063;SDS011;51654;51.452;6.644;2023-02-01T08:35:36;11.97;;;5.00;;
65063;SDS011;51654;51.452;6.644;2023-02-01T08:38:09;24.20;;;7.28;;
65063;SDS011;51654;51.452;6.644;2023-02-01T08:40:36;24.03;;;3.23;;
65063;SDS011;51654;51.452;6.644;2023-02-01T08:43:03;22.67;;;4.83;;
65063;SDS011;51654;51.452;6.644;2023-02-01T08:45:30;13.50;;;4.63;;
65063;SDS011;51654;51.452;6.644;2023-02-01T08:47:57;13.37;;;3.43;;
65063;SDS011;51654;51.452;6.644;2023-02-01T08:50:24;13.67;;;3.43;;
65063;SDS011;51654;51.452;6.644;2023-02-01T08:52:52;22.70;;;4.10;;
65063;SDS011;51654;51.452;6.644;2023-02-01T08:55:19;22.80;;;4.00;;
65063;SDS011;51654;51.452;6.644;2023-02-01T08:57:46;19.03;;;4.10;;
65063;SDS011;51654;51.452;6.644;2023-02-01T09:00:14;21.00;;;2.87;;
65063;SDS011;51654;51.452;6.644;2023-02-01T09:02:43;20.57;;;4.10;;
65063;SDS011;51654;51.452;6.644;2023-02-01T09:05:10;22.37;;;3.37;;
65063;SDS011;51654;51.452;6.644;2023-02-01T09:07:37;12.93;;;4.00;;
65063;SDS011;51654;51.452;6.644;2023-02-01T09:10:05;17.63;;;3.93;;
65063;SDS011;51654;51.452;6.644;2023-02-01T09:12:33;21.93;;;4.33;;
65063;SDS011;51654;51.452;6.644;2023-02-01T09:15:01;22.70;;;5.03;;
65063;SDS011;51654;51.452;6.644;2023-02-01T09:17:29;17.77;;;4.17;;
65063;SDS011;51654;51.452;6.644;2023-02-01T09:19:56;18.50;;;4.13;;
65063;SDS011;51654;51.452;6.644;2023-02-01T09:22:23;18.63;;;3.63;;
65063;SDS011;51654;51.452;6.644;2023-02-01T09:24:51;28.10;;;5.27;;
65063;SDS011;51654;51.452;6.644;2023-02-01T09:27:20;14.67;;;3.43;;
65063;SDS011;51654;51.452;6.644;2023-02-01T09:29:47;15.03;;;3.20;;
65063;SDS011;51654;51.452;6.644;2023-02-01T09:32:19;14.80;;;3.47;;
65063;SDS011;51654;51.452;6.644;2023-02-01T09:34:47;28.90;;;4.97;;
65063;SDS011;51654;51.452;6.644;2023-02-01T09:37:14;13.20;;;3.97;;
65063;SDS011;51654;51.452;6.644;2023-02-01T09:39:42;20.73;;;4.60;;
65063;SDS011;51654;51.452;6.644;2023-02-01T09:45:13;18.87;;;3.50;;
65063;SDS011;51654;51.452;6.644;2023-02-01T09:47:46;16.40;;;3.50;;
65063;SDS011;51654;51.452;6.644;2023-02-01T09:50:19;16.23;;;4.63;;
65063;SDS011;51654;51.452;6.644;2023-02-01T09:53:04;13.90;;;4.22;;
65063;SDS011;51654;51.452;6.644;2023-02-01T09:56:17;26.70;;;5.97;;
65063;SDS011;51654;51.452;6.644;2023-02-01T09:58:52;10.13;;;3.30;;
65063;SDS011;51654;51.452;6.644;2023-02-01T10:01:27;15.20;;;3.97;;
65063;SDS011;51654;51.452;6.644;2023-02-01T10:04:03;22.10;;;4.40;;
65063;SDS011;51654;51.452;6.644;2023-02-01T10:18:10;11.80;;;2.40;;
65063;SDS011;51654;51.452;6.644;2023-02-01T10:21:26;16.90;;;3.70;;
65063;SDS011;51654;51.452;6.644;2023-02-01T10:24:30;13.40;;;3.57;;
65063;SDS011;51654;51.452;6.644;2023-02-01T10:27:11;23.27;;;4.13;;
65063;SDS011;51654;51.452;6.644;2023-02-01T10:29:44;11.00;;;4.20;;
65063;SDS011;51654;51.452;6.644;2023-02-01T10:32:20;16.08;;;4.32;;
65063;SDS011;51654;51.452;6.644;2023-02-01T10:34:55;19.27;;;4.33;;
65063;SDS011;51654;51.452;6.644;2023-02-01T10:37:29;7.40;;;3.07;;
65063;SDS011;51654;51.452;6.644;2023-02-01T10:42:52;15.33;;;5.33;;
65063;SDS011;51654;51.452;6.644;2023-02-01T10:45:22;14.60;;;4.00;;
65063;SDS011;51654;51.452;6.644;2023-02-01T10:47:52;14.60;;;3.30;;
65063;SDS011;51654;51.452;6.644;2023-02-01T10:53:44;12.83;;;3.87;;
65063;SDS011;51654;51.452;6.644;2023-02-01T10:55:55;11.60;;;3.17;;
65063;SDS011;51654;51.452;6.644;2023-02-01T10:58:27;30.07;;;4.90;;
65063;SDS011;51654;51.452;6.644;2023-02-01T11:01:01;22.03;;;4.30;;
65063;SDS011;51654;51.452;6.644;2023-02-01T11:06:10;13.77;;;4.33;;
65063;SDS011;51654;51.452;6.644;2023-02-01T11:08:47;19.20;;;4.30;;
65063;SDS011;51654;51.452;6.644;2023-02-01T11:11:16;17.83;;;3.37;;
65063;SDS011;51654;51.452;6.644;2023-02-01T11:13:51;15.53;;;4.30;;
65063;SDS011;51654;51.452;6.644;2023-02-01T11:16:28;12.67;;;3.60;;
65063;SDS011;51654;51.452;6.644;2023-02-01T11:19:03;24.23;;;3.67;;
65063;SDS011;51654;51.452;6.644;2023-02-01T12:18:50;25.03;;;5.23;;
65063;SDS011;51654;51.452;6.644;2023-02-01T12:24:02;16.47;;;5.87;;
65063;SDS011;51654;51.452;6.644;2023-02-01T12:29:24;22.67;;;3.23;;
65063;SDS011;51654;51.452;6.644;2023-02-01T12:34:48;10.23;;;3.53;;
65063;SDS011;51654;51.452;6.644;2023-02-01T12:37:42;14.23;;;4.17;;
65063;SDS011;51654;51.452;6.644;2023-02-01T12:47:28;13.80;;;2.83;;
65063;SDS011;51654;51.452;6.644;2023-02-01T12:52:44;15.07;;;2.60;;
65063;SDS011;51654;51.452;6.644;2023-02-01T12:55:22;10.60;;;3.13;;
65063;SDS011;51654;51.452;6.644;2023-02-01T12:58:03;15.00;;;2.63;;
65063;SDS011;51654;51.452;6.644;2023-02-01T13:00:40;10.27;;;3.03;;
65063;SDS011;51654;51.452;6.644;2023-02-01T13:03:33;19.73;;;3.73;;
65063;SDS011;51654;51.452;6.644;2023-02-01T13:06:28;15.27;;;3.70;;
65063;SDS011;51654;51.452;6.644;2023-02-01T13:11:31;9.07;;;2.43;;
65063;SDS011;51654;51.452;6.644;2023-02-01T13:16:49;13.53;;;5.20;;
65063;SDS011;51654;51.452;6.644;2023-02-01T13:19:45;14.27;;;2.93;;
65063;SDS011;51654;51.452;6.644;2023-02-01T13:22:25;14.40;;;2.17;;
65063;SDS011;51654;51.452;6.644;2023-02-01T13:24:59;11.77;;;3.03;;
65063;SDS011;51654;51.452;6.644;2023-02-01T13:27:29;7.53;;;2.60;;
65063;SDS011;51654;51.452;6.644;2023-02-01T13:30:20;14.27;;;3.20;;
65063;SDS011;51654;51.452;6.644;2023-02-01T13:33:02;21.07;;;3.47;;
65063;SDS011;51654;51.452;6.644;2023-02-01T13:41:29;55.87;;;18.37;;
65063;SDS011;51654;51.452;6.644;2023-02-01T13:44:10;50.17;;;14.30;;
65063;SDS011;51654;51.452;6.644;2023-02-01T13:46:44;119.87;;;35.83;;
65063;SDS011;51654;51.452;6.644;2023-02-01T13:49:23;17.97;;;5.83;;
65063;SDS011;51654;51.452;6.644;2023-02-01T13:51:57;163.50;;;49.23;;
65063;SDS011;51654;51.452;6.644;2023-02-01T13:56:51;20.10;;;5.63;;
65063;SDS011;51654;51.452;6.644;2023-02-01T14:02:37;32.13;;;4.60;;
65063;SDS011;51654;51.452;6.644;2023-02-01T14:05:10;36.83;;;9.37;;
65063;SDS011;51654;51.452;6.644;2023-02-01T16:27:15;14.95;;;2.95;;
65063;SDS011;51654;51.452;6.644;2023-02-01T16:29:42;16.80;;;3.30;;
65063;SDS011;51654;51.452;6.644;2023-02-01T16:32:14;24.47;;;4.77;;
65063;SDS011;51654;51.452;6.644;2023-02-01T16:34:45;10.07;;;4.07;;
65063;SDS011;51654;51.452;6.644;2023-02-01T16:37:13;10.73;;;3.47;;
65063;SDS011;51654;51.452;6.644;2023-02-01T16:39:43;11.50;;;7.47;;
65063;SDS011;51654;51.452;6.644;2023-02-01T16:42:10;11.40;;;3.07;;
65063;SDS011;51654;51.452;6.644;2023-02-01T16:52:08;12.23;;;3.07;;
65063;SDS011;51654;51.452;6.644;2023-02-01T16:57:11;11.23;;;2.80;;
65063;SDS011;51654;51.452;6.644;2023-02-01T16:59:40;54.53;;;18.43;;
65063;SDS011;51654;51.452;6.644;2023-02-01T17:02:15;45.63;;;15.50;;
65063;SDS011;51654;51.452;6.644;2023-02-01T17:04:45;105.73;;;32.97;;
65063;SDS011;51654;51.452;6.644;2023-02-01T17:07:15;143.50;;;45.17;;
65063;SDS011;51654;51.452;6.644;2023-02-01T17:09:45;70.90;;;21.57;;
65063;SDS011;51654;51.452;6.644;2023-02-01T17:12:21;210.07;;;64.50;;
65063;SDS011;51654;51.452;6.644;2023-02-01T17:14:51;38.53;;;10.77;;
65063;SDS011;51654;51.452;6.644;2023-02-01T17:17:18;114.30;;;32.03;;
65063;SDS011;51654;51.452;6.644;2023-02-01T17:20:02;55.10;;;17.35;;
65063;SDS011;51654;51.452;6.644;2023-02-01T17:22:30;17.23;;;6.30;;
65063;SDS011;51654;51.452;6.644;2023-02-01T17:24:57;27.27;;;9.10;;
65063;SDS011;51654;51.452;6.644;2023-02-01T17:27:24;21.97;;;5.57;;
65063;SDS011;51654;51.452;6.644;2023-02-01T17:54:43;29.43;;;10.63;;
65063;SDS011;51654;51.452;6.644;2023-02-01T17:57:12;52.13;;;16.83;;
65063;SDS011;51654;51.452;6.644;2023-02-01T17:59:39;24.10;;;6.23;;
65063;SDS011;51654;51.452;6.644;2023-02-01T18:02:20;16.53;;;4.07;;
65063;SDS011;51654;51.452;6.644;2023-02-01T18:04:49;43.97;;;10.90;;
65063;SDS011;51654;51.452;6.644;2023-02-01T18:07:16;87.80;;;17.80;;
65063;SDS011;51654;51.452;6.644;2023-02-01T18:09:44;15.00;;;4.40;;
65063;SDS011;51654;51.452;6.644;2023-02-01T18:12:16;12.57;;;4.43;;
65063;SDS011;51654;51.452;6.644;2023-02-01T18:14:46;54.13;;;10.60;;
65063;SDS011;51654;51.452;6.644;2023-02-01T18:17:13;12.93;;;4.60;;
65063;SDS011;51654;51.452;6.644;2023-02-01T18:19:40;27.83;;;7.90;;
65063;SDS011;51654;51.452;6.644;2023-02-01T18:22:11;35.37;;;8.63;;
65063;SDS011;51654;51.452;6.644;2023-02-01T18:24:43;19.50;;;4.60;;
65063;SDS011;51654;51.452;6.644;2023-02-01T18:27:10;23.10;;;5.83;;
65063;SDS011;51654;51.452;6.644;2023-02-01T18:29:41;25.17;;;4.40;;
65063;SDS011;51654;51.452;6.644;2023-02-01T18:32:08;18.87;;;5.67;;
65063;SDS011;51654;51.452;6.644;2023-02-01T18:34:36;17.30;;;3.90;;
65063;SDS011;51654;51.452;6.644;2023-02-01T18:37:03;22.87;;;5.73;;
65063;SDS011;51654;51.452;6.644;2023-02-01T18:39:31;23.77;;;5.40;;
65063;SDS011;51654;51.452;6.644;2023-02-01T18:41:58;15.47;;;3.97;;
65063;SDS011;51654;51.452;6.644;2023-02-01T18:44:25;12.50;;;3.03;;
65063;SDS011;51654;51.452;6.644;2023-02-01T18:46:52;11.80;;;3.03;;
65063;SDS011;51654;51.452;6.644;2023-02-01T18:49:20;22.40;;;4.83;;
65063;SDS011;51654;51.452;6.644;2023-02-01T18:51:48;21.03;;;6.00;;
65063;SDS011;51654;51.452;6.644;2023-02-01T18:54:17;23.50;;;5.13;;
65063;SDS011;51654;51.452;6.644;2023-02-01T18:56:45;14.17;;;5.00;;
65063;SDS011;51654;51.452;6.644;2023-02-01T18:59:12;21.97;;;5.10;;
65063;SDS011;51654;51.452;6.644;2023-02-01T19:53:29;19.60;;;2.30;;
65063;SDS011;51654;51.452;6.644;2023-02-01T19:58:25;12.47;;;2.83;;
65063;SDS011;51654;51.452;6.644;2023-02-01T20:00:53;20.13;;;3.40;;
65063;SDS011;51654;51.452;6.644;2023-02-01T20:03:22;28.70;;;5.43;;
65063;SDS011;51654;51.452;6.644;2023-02-01T20:05:51;12.13;;;2.70;;
65063;SDS011;51654;51.452;6.644;2023-02-01T20:08:18;25.73;;;4.87;;
